Allens Point, New York
Current Conditions -  °F | °C
As of 7:53 AM on Thursday 23 Oct 2014 (Local Time) from KPEO Reporting Station
Overcast Overcast  
Wind Chill: 42°   Ceiling: 1600
Heat Index: 47°   Visibility: 10mi
Dew Point: 40°   Wind: 10mph
Humidity: 77%   Direction: 340°NNW
Pressure: 30.03"   Gusts: 18mph
Location:  42.8228°N, 76.6558°W
Report Text: KPEO 231153Z AUTO 34009G16KT 10SM OVC016 08/04 A3003 RMK AO2 SLP174 T00830044 10083 20072 50001
Loading
Personal Weather Stations






























Interactive Weather Map
Tropical Storm Tracking
New forecast layout! Learn more

10-Day Weather Forecast

Advertisements
Track Severe Weather on mobile